Time;durP1;ratioP1;P1;durP2;ratioP2;P2;SDS_P1;SDS_P2;PMS_P1;PMS_P2;Temp;Humidity;BMP_temperature;BMP_pressure;BME280_temperature;BME280_humidity;BME280_pressure;Samples;Min_cycle;Max_cycle;Signal;HPM_P1;HPM_P2
2023/04/04 00:00:12;;;;;;;8.68;2.47;;;;;;;1.65;100.00;102841.19;5165308;28;20030;-74
2023/04/04 00:02:43;;;;;;;7.28;2.80;;;;;;;1.61;100.00;102841.34;5164178;28;20036;-74
2023/04/04 00:05:13;;;;;;;6.07;1.88;;;;;;;1.57;100.00;102831.84;5164855;28;20109;-74
2023/04/04 00:07:46;;;;;;;9.60;2.25;;;;;;;1.50;100.00;102825.91;5164878;28;20089;-74
2023/04/04 00:10:16;;;;;;;9.70;2.75;;;;;;;1.43;100.00;102819.16;5164160;28;20011;-74
2023/04/04 00:12:47;;;;;;;6.93;2.38;;;;;;;1.38;100.00;102829.03;5165251;28;20041;-74
2023/04/04 00:15:17;;;;;;;7.20;2.47;;;;;;;1.34;100.00;102822.13;5165302;28;20056;-74
2023/04/04 00:17:48;;;;;;;8.88;1.98;;;;;;;1.29;100.00;102823.16;5164679;28;20046;-74
2023/04/04 00:20:18;;;;;;;6.35;1.80;;;;;;;1.26;100.00;102825.94;5164975;28;20030;-73
2023/04/04 00:22:48;;;;;;;5.47;2.25;;;;;;;1.20;100.00;102828.78;5163651;28;20038;-74
2023/04/04 00:25:19;;;;;;;7.70;2.13;;;;;;;1.14;100.00;102829.03;5164833;28;20521;-74
2023/04/04 00:27:50;;;;;;;8.90;2.75;;;;;;;1.09;100.00;102832.75;5164698;28;20046;-74
2023/04/04 00:30:20;;;;;;;8.68;2.30;;;;;;;1.04;100.00;102833.78;5164034;28;20026;-74
2023/04/04 00:32:51;;;;;;;4.63;1.92;;;;;;;1.02;100.00;102826.84;5164935;28;20028;-73
2023/04/04 00:35:21;;;;;;;6.00;2.00;;;;;;;0.96;100.00;102827.94;5164866;28;20022;-74
2023/04/04 00:37:52;;;;;;;6.60;2.17;;;;;;;0.93;100.00;102830.69;5164413;28;20109;-74
2023/04/04 00:40:23;;;;;;;8.88;2.42;;;;;;;0.91;100.00;102834.31;5164423;28;20109;-74
2023/04/04 00:42:54;;;;;;;5.18;2.20;;;;;;;0.87;100.00;102830.91;5164451;28;20246;-74
2023/04/04 00:45:26;;;;;;;6.63;2.20;;;;;;;0.82;100.00;102843.44;5164664;28;20041;-73
2023/04/04 00:47:57;;;;;;;5.53;2.35;;;;;;;0.73;100.00;102843.75;5164108;28;20471;-74
2023/04/04 00:50:28;;;;;;;6.45;2.55;;;;;;;0.66;100.00;102848.41;5164250;28;20031;-74
2023/04/04 00:52:59;;;;;;;4.05;2.00;;;;;;;0.60;100.00;102853.88;5164145;28;20023;-74
2023/04/04 00:55:30;;;;;;;4.40;2.25;;;;;;;0.58;100.00;102853.06;5164426;28;20442;-74
2023/04/04 00:58:00;;;;;;;6.90;2.42;;;;;;;0.57;100.00;102845.22;5163658;28;20053;-74
2023/04/04 01:00:34;;;;;;;7.07;2.25;;;;;;;0.57;100.00;102856.63;5164309;28;20399;-74
2023/04/04 01:03:06;;;;;;;5.75;2.40;;;;;;;0.58;100.00;102865.41;5164476;28;20075;-74
2023/04/04 01:05:38;;;;;;;7.57;2.63;;;;;;;0.57;100.00;102861.91;5164449;28;20109;-74
2023/04/04 01:08:08;;;;;;;11.02;2.63;;;;;;;0.59;100.00;102873.28;5164202;28;20081;-74
2023/04/04 01:10:40;;;;;;;7.18;2.70;;;;;;;0.60;100.00;102868.84;5162816;28;20026;-73
2023/04/04 01:13:10;;;;;;;6.70;3.20;;;;;;;0.59;100.00;102868.00;5157058;28;20599;-74
2023/04/04 01:15:41;;;;;;;5.63;2.50;;;;;;;0.59;100.00;102862.72;5158279;28;20022;-73
2023/04/04 01:18:16;;;;;;;5.28;2.30;;;;;;;0.58;100.00;102863.63;5164029;28;20450;-73
2023/04/04 01:20:55;;;;;;;5.15;2.17;;;;;;;0.61;100.00;102860.91;5163505;28;20033;-74
2023/04/04 01:23:35;;;;;;;7.50;2.50;;;;;;;0.61;100.00;102862.69;5164208;28;20026;-74
2023/04/04 01:26:06;;;;;;;6.63;2.45;;;;;;;0.61;100.00;102860.03;5162338;28;20483;-74
2023/04/04 01:28:37;;;;;;;10.63;2.90;;;;;;;0.60;100.00;102858.28;5163222;28;20038;-74
2023/04/04 01:31:11;;;;;;;7.95;2.85;;;;;;;0.55;100.00;102855.81;5163660;28;20029;-73
2023/04/04 01:33:46;;;;;;;10.63;2.88;;;;;;;0.50;100.00;102863.03;5163771;28;20504;-73
2023/04/04 01:36:30;;;;;;;11.25;3.22;;;;;;;0.46;100.00;102856.16;5163738;28;20091;-74
2023/04/04 01:39:14;;;;;;;6.50;2.83;;;;;;;0.42;100.00;102851.88;5162202;28;20034;-74
2023/04/04 01:41:47;;;;;;;5.38;2.80;;;;;;;0.40;100.00;102856.31;5162498;28;20062;-74
2023/04/04 01:44:17;;;;;;;6.22;2.58;;;;;;;0.38;100.00;102845.81;5163676;28;20034;-74
2023/04/04 01:47:05;;;;;;;6.50;2.90;;;;;;;0.37;100.00;102845.88;5163226;28;20491;-73
2023/04/04 01:49:36;;;;;;;5.78;2.63;;;;;;;0.36;100.00;102860.00;5163366;28;20037;-74
2023/04/04 01:52:06;;;;;;;6.45;2.75;;;;;;;0.33;100.00;102857.47;5163228;28;20387;-74
2023/04/04 01:54:37;;;;;;;9.27;3.47;;;;;;;0.29;100.00;102848.78;5163529;28;20037;-73
2023/04/04 01:57:16;;;;;;;10.23;2.88;;;;;;;0.25;100.00;102855.06;5163124;28;20057;-74
2023/04/04 01:59:47;;;;;;;7.32;2.35;;;;;;;0.22;100.00;102848.13;5162939;28;20054;-74
2023/04/04 02:02:31;;;;;;;10.95;3.10;;;;;;;0.20;100.00;102849.06;5163178;28;20027;-74
2023/04/04 02:05:03;;;;;;;5.53;2.50;;;;;;;0.18;100.00;102848.28;5163179;28;20395;-74
2023/04/04 02:07:35;;;;;;;6.50;2.65;;;;;;;0.15;100.00;102858.91;5162961;28;20026;-73
2023/04/04 02:10:06;;;;;;;10.95;2.30;;;;;;;0.10;100.00;102850.28;5162537;28;20154;-73
2023/04/04 02:12:36;;;;;;;6.00;2.85;;;;;;;0.05;100.00;102853.09;5162054;28;20022;-73
2023/04/04 02:15:07;;;;;;;7.50;2.80;;;;;;;0.01;100.00;102847.97;5163491;28;20058;-74
2023/04/04 02:17:38;;;;;;;8.40;3.33;;;;;;;-0.04;100.00;102853.38;5163069;28;20025;-74
2023/04/04 02:20:09;;;;;;;7.88;2.63;;;;;;;-0.08;100.00;102854.41;5162908;28;20026;-74
2023/04/04 02:22:39;;;;;;;5.13;2.70;;;;;;;-0.10;100.00;102848.28;5162226;28;20022;-74
2023/04/04 02:25:10;;;;;;;7.18;2.30;;;;;;;-0.12;100.00;102847.47;5158591;28;20054;-74
2023/04/04 02:27:45;;;;;;;12.02;3.08;;;;;;;-0.14;100.00;102852.81;5162319;28;20039;-74
2023/04/04 02:30:16;;;;;;;7.10;2.58;;;;;;;-0.16;100.00;102843.22;5161386;28;20030;-73
2023/04/04 02:32:47;;;;;;;8.55;2.50;;;;;;;-0.19;100.00;102845.97;5162913;28;20054;-74
2023/04/04 02:35:18;;;;;;;16.42;2.88;;;;;;;-0.22;100.00;102843.41;5162292;28;20101;-74
2023/04/04 02:37:48;;;;;;;8.23;2.35;;;;;;;-0.23;100.00;102846.97;5162418;28;20028;-74
2023/04/04 02:40:19;;;;;;;6.38;2.72;;;;;;;-0.24;100.00;102845.25;5162550;28;20030;-73
2023/04/04 02:42:49;;;;;;;8.05;2.75;;;;;;;-0.29;100.00;102840.97;5162807;28;20026;-74
2023/04/04 02:45:20;;;;;;;6.57;3.10;;;;;;;-0.33;100.00;102836.69;5162584;28;20026;-73
2023/04/04 02:47:51;;;;;;;11.90;2.97;;;;;;;-0.37;100.00;102831.56;5161703;28;20068;-74
2023/04/04 02:50:21;;;;;;;11.25;2.70;;;;;;;-0.41;100.00;102833.41;5162417;28;20037;-74
2023/04/04 02:52:53;;;;;;;5.57;2.50;;;;;;;-0.41;100.00;102824.66;5162486;28;20015;-74
2023/04/04 02:55:24;;;;;;;4.82;2.38;;;;;;;-0.42;100.00;102833.47;5161553;28;20034;-73
2023/04/04 02:57:54;;;;;;;6.25;2.50;;;;;;;-0.43;100.00;102827.34;5161933;28;20479;-73
2023/04/04 03:00:25;;;;;;;8.75;2.60;;;;;;;-0.47;100.00;102828.34;5162257;28;20045;-74
2023/04/04 03:02:56;;;;;;;5.78;2.65;;;;;;;-0.50;100.00;102819.66;5162012;28;20046;-74
2023/04/04 03:05:28;;;;;;;7.07;2.72;;;;;;;-0.56;100.00;102826.84;5161510;28;20034;-73
2023/04/04 03:07:59;;;;;;;11.35;3.10;;;;;;;-0.63;100.00;102830.56;5161773;28;20030;-74
2023/04/04 03:10:29;;;;;;;8.10;2.15;;;;;;;-0.69;100.00;102827.28;5162008;28;20022;-74
2023/04/04 03:13:00;;;;;;;5.53;2.70;;;;;;;-0.73;100.00;102830.91;5161898;28;20026;-74
2023/04/04 03:15:30;;;;;;;4.95;2.40;;;;;;;-0.79;100.00;102824.03;5162704;28;20049;-73
2023/04/04 03:18:02;;;;;;;6.75;2.42;;;;;;;-0.81;100.00;102825.84;5160961;28;20061;-74
2023/04/04 03:20:32;;;;;;;8.27;3.55;;;;;;;-0.85;100.00;102835.63;5162237;28;20041;-73
2023/04/04 03:23:02;;;;;;;9.18;3.38;;;;;;;-0.87;100.00;102836.56;5161422;28;20026;-74
2023/04/04 03:25:33;;;;;;;6.97;2.80;;;;;;;-0.89;100.00;102839.25;5162231;28;20467;-73
2023/04/04 03:28:22;;;;;;;8.45;3.17;;;;;;;-0.91;100.00;102840.19;5161576;28;20034;-73
2023/04/04 03:30:52;;;;;;;8.60;3.42;;;;;;;-0.89;100.00;102838.41;5161773;28;20149;-74
2023/04/04 03:33:23;;;;;;;7.38;2.90;;;;;;;-0.88;100.00;102848.88;5161881;28;20018;-73
2023/04/04 03:35:53;;;;;;;7.72;3.20;;;;;;;-0.87;100.00;102839.19;5162002;28;20053;-73
2023/04/04 03:38:23;;;;;;;10.15;3.33;;;;;;;-0.82;100.00;102846.06;5161696;28;20117;-74
2023/04/04 03:41:11;;;;;;;7.28;3.65;;;;;;;-0.76;100.00;102836.25;5161930;28;20038;-74
2023/04/04 03:43:41;;;;;;;12.20;4.00;;;;;;;-0.74;100.00;102826.53;5162137;28;20033;-73
2023/04/04 03:46:12;;;;;;;10.75;3.35;;;;;;;-0.74;100.00;102826.53;5161429;28;20038;-74
2023/04/04 03:48:42;;;;;;;6.72;3.55;;;;;;;-0.77;100.00;102827.47;5160537;28;20414;-73
2023/04/04 03:51:13;;;;;;;9.60;3.40;;;;;;;-0.80;100.00;102824.97;5161678;28;20057;-73
2023/04/04 03:53:43;;;;;;;8.32;3.90;;;;;;;-0.86;100.00;102836.50;5162275;28;20019;-73
2023/04/04 03:56:14;;;;;;;18.08;3.40;;;;;;;-0.91;100.00;102832.28;5161716;28;20102;-73
2023/04/04 03:58:45;;;;;;;7.75;3.45;;;;;;;-0.97;100.00;102838.59;5160224;28;20109;-74
2023/04/04 04:01:15;;;;;;;6.25;3.50;;;;;;;-1.04;100.00;102837.06;5161458;28;20080;-73
2023/04/04 04:03:46;;;;;;;8.13;3.38;;;;;;;-1.07;100.00;102837.13;5162102;28;20069;-73
2023/04/04 04:06:16;;;;;;;9.32;3.72;;;;;;;-1.07;100.00;102840.63;5163431;28;20032;-73
2023/04/04 04:08:47;;;;;;;7.55;3.35;;;;;;;-1.03;100.00;102844.03;5165679;28;20121;-73
2023/04/04 04:11:18;;;;;;;11.02;3.78;;;;;;;-1.03;100.00;102838.78;5164703;28;20399;-74
2023/04/04 04:13:48;;;;;;;9.02;3.42;;;;;;;-1.00;100.00;102843.97;5164220;28;20018;-73
2023/04/04 04:16:18;;;;;;;8.23;3.65;;;;;;;-0.98;100.00;102844.78;5164932;28;20104;-73
2023/04/04 04:18:49;;;;;;;13.88;3.88;;;;;;;-0.99;100.00;102842.19;5165514;28;20486;-74
2023/04/04 04:21:19;;;;;;;10.27;3.58;;;;;;;-0.96;100.00;102837.69;5164436;28;20030;-73
2023/04/04 04:23:50;;;;;;;12.27;4.38;;;;;;;-0.93;100.00;102834.97;5165035;28;20022;-73
2023/04/04 04:26:21;;;;;;;12.88;4.88;;;;;;;-0.90;100.00;102844.56;5165014;28;20117;-73
2023/04/04 04:28:51;;;;;;;12.20;4.15;;;;;;;-0.94;100.00;102838.53;5164812;28;20070;-73
2023/04/04 04:31:22;;;;;;;13.43;4.10;;;;;;;-0.99;100.00;102832.53;5165284;28;20057;-73
2023/04/04 04:33:52;;;;;;;8.45;3.50;;;;;;;-1.06;100.00;102830.94;5163238;28;20058;-73
2023/04/04 04:36:23;;;;;;;10.80;3.60;;;;;;;-1.12;100.00;102828.50;5163539;28;20089;-73
2023/04/04 04:38:53;;;;;;;11.63;4.47;;;;;;;-1.18;100.00;102834.78;5164741;28;20022;-73
2023/04/04 04:41:23;;;;;;;12.63;3.72;;;;;;;-1.23;100.00;102835.84;5164858;28;20034;-73
2023/04/04 04:43:55;;;;;;;14.98;4.43;;;;;;;-1.29;100.00;102833.38;5164971;28;20029;-73
2023/04/04 04:46:25;;;;;;;11.43;4.50;;;;;;;-1.36;100.00;102833.50;5163934;28;20040;-73
2023/04/04 04:48:56;;;;;;;12.57;4.38;;;;;;;-1.41;100.00;102840.66;5151583;28;20026;-73
2023/04/04 04:51:27;;;;;;;10.95;4.40;;;;;;;-1.43;100.00;102846.91;5164363;28;20486;-73
2023/04/04 04:53:57;;;;;;;13.20;5.35;;;;;;;-1.46;100.00;102846.97;5163520;28;20037;-73
2023/04/04 04:56:28;;;;;;;15.57;6.72;;;;;;;-1.49;100.00;102847.94;5164258;28;20109;-73
2023/04/04 04:58:58;;;;;;;13.40;6.95;;;;;;;-1.50;100.00;102859.38;5163932;28;20025;-73
2023/04/04 05:01:28;;;;;;;13.82;5.40;;;;;;;-1.53;100.00;102861.19;5164063;28;20126;-73
2023/04/04 05:03:59;;;;;;;13.77;5.25;;;;;;;-1.58;100.00;102854.28;5164416;28;20132;-73
2023/04/04 05:06:29;;;;;;;12.55;4.68;;;;;;;-1.60;100.00;102855.25;5164133;28;20038;-73
2023/04/04 05:09:00;;;;;;;20.80;5.03;;;;;;;-1.61;100.00;102856.13;5164192;28;20042;-73
2023/04/04 05:11:30;;;;;;;12.70;5.45;;;;;;;-1.62;100.00;102857.03;5163565;28;20415;-73
2023/04/04 05:14:01;;;;;;;16.90;5.70;;;;;;;-1.63;100.00;102853.53;5150938;28;20110;-73
2023/04/04 05:16:32;;;;;;;11.18;5.45;;;;;;;-1.62;100.00;102859.66;5163774;28;20050;-73
2023/04/04 05:19:02;;;;;;;12.70;4.82;;;;;;;-1.66;100.00;102860.63;5164551;28;20479;-73
2023/04/04 05:21:33;;;;;;;16.38;5.97;;;;;;;-1.66;100.00;102852.75;5163719;28;20506;-73
2023/04/04 05:24:03;;;;;;;14.20;6.50;;;;;;;-1.68;100.00;102855.41;5164106;28;20049;-73
2023/04/04 05:26:34;;;;;;;12.10;5.10;;;;;;;-1.69;100.00;102863.38;5163688;28;20084;-73
2023/04/04 05:29:04;;;;;;;7.72;4.57;;;;;;;-1.69;100.00;102866.00;5163572;28;20022;-73
2023/04/04 05:31:35;;;;;;;15.55;4.68;;;;;;;-1.71;100.00;102860.75;5162686;28;20093;-73
2023/04/04 05:34:15;;;;;;;18.52;5.35;;;;;;;-1.69;100.00;102860.72;5163699;28;20432;-73
2023/04/04 05:36:47;;;;;;;10.93;4.90;;;;;;;-1.66;100.00;102856.22;5163083;28;20149;-73
2023/04/04 05:39:17;;;;;;;13.27;5.18;;;;;;;-1.63;100.00;102865.84;5163942;28;20109;-73
2023/04/04 05:41:48;;;;;;;10.95;4.97;;;;;;;-1.54;100.00;102862.13;5163291;28;20034;-73
2023/04/04 05:44:18;;;;;;;11.18;5.45;;;;;;;-1.47;100.00;102866.31;5163903;28;20117;-73
2023/04/04 05:46:49;;;;;;;13.30;4.85;;;;;;;-1.37;100.00;102871.28;5162558;28;20037;-73
2023/04/04 05:49:19;;;;;;;16.17;4.93;;;;;;;-1.27;100.00;102871.06;5163507;28;20073;-73
2023/04/04 05:51:51;;;;;;;11.02;5.05;;;;;;;-1.17;100.00;102872.53;5163250;28;20034;-73
2023/04/04 05:54:22;;;;;;;19.08;5.32;;;;;;;-1.10;100.00;102882.88;5163696;28;20109;-73
2023/04/04 05:56:52;;;;;;;16.02;5.55;;;;;;;-1.02;100.00;102884.44;5163103;28;20464;-73
2023/04/04 05:59:23;;;;;;;13.73;5.55;;;;;;;-0.94;100.00;102891.22;5162809;28;20101;-73
2023/04/04 06:01:53;;;;;;;14.63;5.43;;;;;;;-0.84;100.00;102894.47;5163111;28;20030;-73
2023/04/04 06:04:24;;;;;;;12.70;5.88;;;;;;;-0.75;100.00;102888.94;5162968;28;20026;-73
2023/04/04 06:06:54;;;;;;;10.18;5.68;;;;;;;-0.50;100.00;102898.75;5162915;28;20543;-73
2023/04/04 06:09:25;;;;;;;20.10;6.25;;;;;;;0.18;100.00;102891.38;5162771;28;20057;-73
2023/04/04 06:11:55;;;;;;;16.27;5.70;;;;;;;1.03;100.00;102892.00;5162539;28;20105;-73
2023/04/04 06:14:26;;;;;;;19.65;5.88;;;;;;;1.72;100.00;102895.59;5163019;28;20026;-73
2023/04/04 06:16:57;;;;;;;17.05;5.95;;;;;;;2.25;100.00;102887.31;5156667;28;20432;-74
2023/04/04 06:19:27;;;;;;;11.68;4.82;;;;;;;2.89;100.00;102904.09;5161394;28;20412;-74
2023/04/04 06:21:58;;;;;;;10.75;4.95;;;;;;;3.31;100.00;102896.91;5161599;28;20034;-74
2023/04/04 06:24:28;;;;;;;12.05;4.63;;;;;;;3.79;100.00;102900.00;5161166;28;20026;-73
2023/04/04 06:26:59;;;;;;;10.20;4.68;;;;;;;4.27;100.00;102899.44;5160142;28;20514;-74
2023/04/04 06:29:30;;;;;;;10.57;4.82;;;;;;;4.71;100.00;102896.34;5159720;28;20022;-74
2023/04/04 06:32:00;;;;;;;12.48;4.68;;;;;;;4.97;100.00;102896.78;5160285;28;20018;-74
2023/04/04 06:34:31;;;;;;;11.27;4.28;;;;;;;4.79;100.00;102903.94;5161258;28;20026;-74
2023/04/04 06:37:02;;;;;;;14.05;4.38;;;;;;;4.30;100.00;102893.09;5158797;28;20108;-74
2023/04/04 06:39:33;;;;;;;12.02;4.38;;;;;;;4.15;100.00;102898.22;5161390;28;20080;-74
2023/04/04 06:42:03;;;;;;;12.00;4.20;;;;;;;4.13;100.00;102904.56;5161002;28;20034;-74
2023/04/04 06:44:34;;;;;;;11.23;4.38;;;;;;;4.53;100.00;102898.16;5161746;28;20037;-74
2023/04/04 06:47:04;;;;;;;9.90;4.28;;;;;;;4.86;100.00;102905.31;5159888;28;20698;-74
2023/04/04 06:49:35;;;;;;;9.18;3.95;;;;;;;5.16;100.00;102911.72;5160943;28;20388;-74
2023/04/04 06:52:05;;;;;;;12.68;5.00;;;;;;;5.31;100.00;102909.19;5161108;28;20014;-74
2023/04/04 06:54:36;;;;;;;14.52;4.88;;;;;;;5.69;100.00;102912.44;5160893;28;20057;-74
2023/04/04 06:57:07;;;;;;;10.13;4.65;;;;;;;6.10;100.00;102912.81;5160282;28;20105;-75
2023/04/04 06:59:37;;;;;;;8.25;3.92;;;;;;;6.53;100.00;102917.50;5160588;28;20052;-75
2023/04/04 07:02:07;;;;;;;11.18;4.25;;;;;;;6.80;100.00;102917.69;5160692;28;20027;-75
2023/04/04 07:04:38;;;;;;;10.45;4.90;;;;;;;7.18;100.00;102926.06;5161052;28;20037;-75
2023/04/04 07:07:11;;;;;;;13.57;4.57;;;;;;;7.42;100.00;102931.69;5160453;28;20057;-75
2023/04/04 07:09:41;;;;;;;8.15;3.78;;;;;;;7.19;100.00;102927.78;5160949;28;20019;-75
2023/04/04 07:12:12;;;;;;;7.47;4.10;;;;;;;7.16;100.00;102938.63;5160494;28;20029;-75
2023/04/04 07:14:42;;;;;;;11.32;4.38;;;;;;;7.45;100.00;102935.03;5160751;28;20081;-75
2023/04/04 07:17:12;;;;;;;8.80;4.20;;;;;;;7.63;100.00;102940.16;5160710;28;20098;-75
2023/04/04 07:19:43;;;;;;;13.13;3.85;;;;;;;7.91;100.00;102937.47;5159928;28;20030;-75
2023/04/04 07:22:14;;;;;;;8.18;3.97;;;;;;;8.07;100.00;102933.81;5160636;28;20034;-75
2023/04/04 07:24:47;;;;;;;12.05;4.07;;;;;;;8.07;100.00;102923.13;5160375;28;20081;-75
2023/04/04 07:27:17;;;;;;;14.05;3.63;;;;;;;8.11;100.00;102919.31;5159846;28;20033;-75
2023/04/04 07:29:47;;;;;;;10.75;4.38;;;;;;;8.05;100.00;102918.75;5160706;28;20026;-75
2023/04/04 07:32:18;;;;;;;7.05;3.33;;;;;;;8.49;100.00;102915.00;5159646;28;20018;-75
2023/04/04 07:34:49;;;;;;;9.18;3.40;;;;;;;8.63;100.00;102922.09;5160805;28;20054;-75
2023/04/04 07:37:20;;;;;;;11.50;3.35;;;;;;;8.68;100.00;102921.78;5159421;28;20121;-75
2023/04/04 07:39:51;;;;;;;12.23;3.30;;;;;;;8.83;100.00;102923.41;5159908;28;20390;-75
2023/04/04 07:42:22;;;;;;;5.07;3.38;;;;;;;8.77;100.00;102918.47;5151485;28;20030;-75
2023/04/04 07:44:52;;;;;;;7.97;3.45;;;;;;;8.85;100.00;102918.84;5164424;28;20475;-75
2023/04/04 07:47:23;;;;;;;8.63;3.60;;;;;;;9.07;100.00;102913.69;5163817;28;20061;-75
2023/04/04 07:49:53;;;;;;;11.25;3.40;;;;;;;9.22;100.00;102914.47;5163974;28;20026;-75
2023/04/04 07:52:24;;;;;;;10.82;4.20;;;;;;;9.49;100.00;102909.00;5164639;28;20023;-76
2023/04/04 07:54:54;;;;;;;8.00;3.97;;;;;;;9.69;100.00;102904.91;5164105;28;20018;-75
2023/04/04 07:57:25;;;;;;;6.78;2.90;;;;;;;9.36;98.44;102907.28;5163834;28;20108;-75
2023/04/04 07:59:55;;;;;;;8.05;2.92;;;;;;;9.30;99.05;102897.88;5164195;28;20022;-75
2023/04/04 08:02:26;;;;;;;4.57;2.75;;;;;;;9.40;96.57;102896.25;5163670;28;20030;-75
2023/04/04 08:04:56;;;;;;;9.82;2.80;;;;;;;9.38;91.93;102897.31;5163917;28;20105;-75
2023/04/04 08:07:27;;;;;;;6.00;3.15;;;;;;;9.45;89.08;102893.25;5163492;28;20634;-75
2023/04/04 08:09:57;;;;;;;7.38;3.00;;;;;;;8.82;93.07;102890.44;5162868;28;20030;-75
2023/04/04 08:12:28;;;;;;;9.65;3.00;;;;;;;8.45;93.04;102900.13;5163825;28;20030;-75
2023/04/04 08:14:58;;;;;;;9.18;3.10;;;;;;;7.79;100.00;102891.03;5163548;28;20565;-75
2023/04/04 08:17:29;;;;;;;9.20;3.10;;;;;;;7.96;100.00;102884.59;5163982;28;20398;-75
2023/04/04 08:19:59;;;;;;;7.18;2.47;;;;;;;8.50;100.00;102887.28;5164092;28;20475;-75
2023/04/04 08:22:30;;;;;;;10.55;2.85;;;;;;;8.95;93.31;102885.13;5163609;28;20675;-75
2023/04/04 08:25:00;;;;;;;6.80;2.33;;;;;;;9.40;92.90;102890.88;5163466;28;20026;-75
2023/04/04 08:27:31;;;;;;;10.13;3.58;;;;;;;9.19;91.06;102892.41;5162840;28;20071;-73
2023/04/04 08:30:02;;;;;;;6.80;2.38;;;;;;;9.11;92.11;102900.97;5162231;28;20132;-73
2023/04/04 08:32:33;;;;;;;4.70;2.30;;;;;;;9.67;90.22;102900.59;5163504;28;20068;-73
2023/04/04 08:35:04;;;;;;;6.97;3.05;;;;;;;9.93;80.98;102904.91;5161947;28;20030;-73
2023/04/04 08:37:35;;;;;;;7.18;2.67;;;;;;;9.21;88.99;102899.38;5162735;28;20215;-73
2023/04/04 08:40:06;;;;;;;7.70;2.40;;;;;;;8.40;87.96;102902.25;5162878;28;20029;-73
2023/04/04 08:42:39;;;;;;;7.65;2.75;;;;;;;9.29;88.48;102906.88;5163521;28;20054;-73
2023/04/04 08:45:11;;;;;;;5.63;2.38;;;;;;;9.83;81.87;102896.69;5163152;28;20038;-73
2023/04/04 08:47:43;;;;;;;6.22;2.50;;;;;;;10.46;85.46;102902.81;5162810;28;20448;-73
2023/04/04 08:50:14;;;;;;;6.95;2.45;;;;;;;10.41;77.93;102910.34;5162550;28;20018;-74
2023/04/04 08:52:45;;;;;;;7.07;2.40;;;;;;;10.77;76.50;102919.28;5162953;28;20050;-73
2023/04/04 08:55:16;;;;;;;7.28;2.53;;;;;;;10.72;71.06;102910.72;5162649;28;20105;-73
2023/04/04 08:57:48;;;;;;;5.25;2.33;;;;;;;10.39;74.21;102906.91;5162357;28;20097;-73
2023/04/04 09:00:20;;;;;;;7.50;2.40;;;;;;;10.18;77.64;102903.97;5163055;28;20027;-74
2023/04/04 09:03:12;;;;;;;5.70;2.10;;;;;;;10.14;75.14;102905.19;5162166;28;20041;-73
2023/04/04 09:05:43;;;;;;;7.25;2.28;;;;;;;9.99;70.78;102907.19;5162747;28;20033;-74
2023/04/04 09:08:17;;;;;;;6.32;2.78;;;;;;;10.07;72.22;102902.09;5162774;28;20031;-74
2023/04/04 09:10:48;;;;;;;4.20;2.35;;;;;;;10.14;73.25;102905.19;5162431;28;20024;-73
2023/04/04 09:13:18;;;;;;;7.70;2.35;;;;;;;10.41;72.09;102904.13;5162757;28;20079;-73
2023/04/04 09:15:52;;;;;;;5.32;2.47;;;;;;;10.38;69.77;102906.06;5161969;28;20018;-73
2023/04/04 09:18:23;;;;;;;9.68;2.95;;;;;;;11.12;74.49;102895.91;5162690;28;20050;-73
2023/04/04 09:20:53;;;;;;;6.25;2.60;;;;;;;10.77;71.31;102897.78;5162248;28;20038;-74
2023/04/04 09:23:24;;;;;;;7.65;2.40;;;;;;;10.56;75.64;102903.81;5162244;28;20027;-73
2023/04/04 09:25:55;;;;;;;5.18;2.22;;;;;;;10.58;70.92;102901.88;5161758;28;20580;-74
2023/04/04 09:28:26;;;;;;;8.35;2.67;;;;;;;9.98;68.99;102897.38;5162520;28;20041;-74
2023/04/04 09:30:59;;;;;;;11.80;2.60;;;;;;;10.28;70.71;102890.75;5161965;28;20034;-74
2023/04/04 09:33:32;;;;;;;8.88;2.70;;;;;;;10.76;71.91;102902.31;5161351;28;20030;-73
2023/04/04 09:36:06;;;;;;;9.15;3.45;;;;;;;10.79;66.52;102903.88;5161300;28;20534;-74
2023/04/04 09:38:42;;;;;;;9.45;2.42;;;;;;;10.73;66.06;102894.47;5162276;28;20121;-73
2023/04/04 09:41:14;;;;;;;5.05;2.35;;;;;;;11.12;71.88;102895.06;5161102;28;20064;-74
2023/04/04 09:43:45;;;;;;;6.68;2.70;;;;;;;11.00;74.31;102896.03;5160907;28;20495;-74
2023/04/04 09:46:36;;;;;;;7.32;2.33;;;;;;;11.23;68.59;102897.75;5161187;28;20081;-73
2023/04/04 09:49:25;;;;;;;7.88;2.80;;;;;;;11.39;65.32;102892.00;5150912;28;20065;-74
2023/04/04 09:51:55;;;;;;;8.27;2.85;;;;;;;11.58;69.95;102886.03;5161850;28;20487;-73
2023/04/04 09:54:26;;;;;;;6.57;2.40;;;;;;;11.35;67.30;102885.19;5161176;28;20034;-74
2023/04/04 09:56:56;;;;;;;3.63;1.90;;;;;;;11.05;64.50;102885.78;5160945;28;20109;-73
2023/04/04 09:59:27;;;;;;;5.57;2.15;;;;;;;10.32;62.61;102890.41;5161690;28;20033;-73
2023/04/04 10:02:01;;;;;;;5.78;2.08;;;;;;;10.24;63.85;102887.47;5161680;28;20026;-74
2023/04/04 10:04:33;;;;;;;5.43;2.15;;;;;;;10.44;64.31;102887.78;5159824;28;20030;-74
2023/04/04 10:07:05;;;;;;;5.47;2.33;;;;;;;10.42;65.70;102879.84;5160858;28;20069;-73
2023/04/04 10:09:36;;;;;;;3.33;1.90;;;;;;;10.52;62.38;102875.50;5161529;28;20026;-74
2023/04/04 10:12:09;;;;;;;3.83;2.20;;;;;;;9.87;65.49;102870.50;5161824;28;20029;-73
2023/04/04 10:14:40;;;;;;;8.45;2.15;;;;;;;9.71;66.28;102859.22;5161668;28;20072;-74
2023/04/04 10:17:10;;;;;;;5.88;2.03;;;;;;;10.17;69.53;102861.19;5161522;28;20143;-73
2023/04/04 10:19:42;;;;;;;5.70;2.80;;;;;;;9.75;67.00;102866.06;5161143;28;20479;-73
2023/04/04 10:22:14;;;;;;;6.28;2.28;;;;;;;10.11;71.10;102857.97;5161129;28;20026;-74
2023/04/04 10:24:45;;;;;;;3.85;2.00;;;;;;;10.33;69.02;102867.13;5168210;28;20038;-74
2023/04/04 10:27:15;;;;;;;5.90;2.17;;;;;;;10.69;69.11;102865.28;5160959;28;20022;-73
2023/04/04 10:29:46;;;;;;;6.85;2.47;;;;;;;10.32;66.97;102849.31;5160196;28;20025;-73
2023/04/04 10:32:24;;;;;;;6.70;2.42;;;;;;;10.12;67.64;102848.97;5160681;28;20104;-73
2023/04/04 10:35:01;;;;;;;7.80;2.55;;;;;;;10.06;67.75;102852.09;5161430;28;20027;-74
2023/04/04 10:37:39;;;;;;;4.75;2.50;;;;;;;9.93;67.12;102850.44;5160452;28;20027;-73
2023/04/04 10:40:33;;;;;;;11.10;2.72;;;;;;;10.29;71.54;102849.53;5160898;28;20068;-74
2023/04/04 10:43:05;;;;;;;8.30;2.30;;;;;;;10.80;72.98;102844.72;5161361;28;20022;-74
2023/04/04 10:45:39;;;;;;;7.65;2.10;;;;;;;11.07;73.81;102836.31;5160743;28;20030;-73
2023/04/04 10:48:09;;;;;;;5.22;2.30;;;;;;;10.40;63.60;102854.97;5159771;28;20038;-73
2023/04/04 10:50:40;;;;;;;4.47;2.30;;;;;;;10.44;64.83;102851.09;5160866;28;20049;-73
2023/04/04 10:53:11;;;;;;;6.53;2.30;;;;;;;10.78;69.97;102837.75;5160420;28;20045;-73
2023/04/04 10:55:43;;;;;;;5.63;2.58;;;;;;;10.93;68.02;102841.91;5159367;28;20018;-73
2023/04/04 10:58:14;;;;;;;4.90;2.30;;;;;;;10.78;62.70;102840.44;5160494;28;20023;-73
2023/04/04 11:00:58;;;;;;;5.05;2.00;;;;;;;10.75;72.03;102832.63;5159528;28;20030;-73
2023/04/04 11:03:52;;;;;;;6.25;2.85;;;;;;;10.96;68.91;102830.94;5160520;28;20033;-73
2023/04/04 11:06:23;;;;;;;7.47;2.42;;;;;;;11.15;67.92;102822.31;5159641;28;20398;-73
2023/04/04 11:08:55;;;;;;;3.92;2.25;;;;;;;11.34;72.88;102817.13;5161285;28;20030;-73
2023/04/04 11:11:27;;;;;;;5.70;2.38;;;;;;;11.57;69.16;102830.56;5159413;28;20392;-74
2023/04/04 11:13:59;;;;;;;6.00;2.42;;;;;;;11.31;63.39;102821.94;5156111;28;20027;-74
2023/04/04 11:16:45;;;;;;;5.40;2.75;;;;;;;10.69;68.05;102817.84;5164962;28;20060;-74
2023/04/04 11:19:16;;;;;;;5.38;2.60;;;;;;;10.41;63.80;102820.94;5165051;28;20100;-73
2023/04/04 11:21:49;;;;;;;9.63;2.80;;;;;;;10.77;65.78;102818.09;5164755;28;20038;-74
2023/04/04 11:24:20;;;;;;;10.00;2.60;;;;;;;11.18;69.36;102807.75;5164938;28;20022;-74
2023/04/04 11:26:53;;;;;;;4.57;2.20;;;;;;;11.00;61.21;102818.16;5164158;28;20109;-74
2023/04/04 11:29:48;;;;;;;7.80;2.92;;;;;;;11.42;69.96;102811.16;5164180;28;20029;-73
2023/04/04 11:32:57;;;;;;;6.07;2.20;;;;;;;10.90;63.19;102815.31;5163591;28;20023;-74
2023/04/04 11:35:27;;;;;;;5.38;2.45;;;;;;;10.57;61.89;102808.06;5164521;28;20037;-73
2023/04/04 11:38:00;;;;;;;7.88;2.35;;;;;;;10.76;71.45;102804.81;5164391;28;20030;-74
2023/04/04 11:41:09;;;;;;;8.15;2.40;;;;;;;10.87;58.56;102802.97;5165071;28;20030;-74